Time;durP1;ratioP1;P1;durP2;ratioP2;P2;SDS_P1;SDS_P2;PMS_P1;PMS_P2;Temp;Humidity;BMP_temperature;BMP_pressure;BME280_temperature;BME280_humidity;BME280_pressure;Samples;Min_cycle;Max_cycle;Signal;HPM_P1;HPM_P2
2022/04/18 00:01:29;;;;;;;11.18;8.20;;;;;;;;;;5095981;28;20074;-71
2022/04/18 00:03:55;;;;;;;14.30;8.20;;;;;;;;;;5095966;27;20511;-70
2022/04/18 00:06:21;;;;;;;12.30;8.35;;;;;;;;;;5094235;28;20059;-71
2022/04/18 00:08:48;;;;;;;11.88;8.85;;;;;;;;;;5094996;28;20052;-70
2022/04/18 00:11:14;;;;;;;12.73;8.93;;;;;;;;;;5096040;28;20045;-71
2022/04/18 00:13:40;;;;;;;12.25;8.65;;;;;;;;;;5093648;28;20082;-70
2022/04/18 00:16:07;;;;;;;13.30;8.68;;;;;;;;;;5094192;28;20114;-70
2022/04/18 00:18:33;;;;;;;10.60;8.27;;;;;;;;;;5094560;28;20058;-71
2022/04/18 00:20:59;;;;;;;10.77;8.65;;;;;;;;;;5097055;28;20174;-70
2022/04/18 00:23:26;;;;;;;10.57;8.50;;;;;;;;;;5093014;28;20052;-70
2022/04/18 00:25:52;;;;;;;11.32;8.65;;;;;;;;;;5106779;28;20048;-70
2022/04/18 00:28:18;;;;;;;11.80;9.00;;;;;;;;;;5093663;28;20044;-70
2022/04/18 00:30:44;;;;;;;11.18;8.45;;;;;;;;;;5096387;28;20062;-69
2022/04/18 00:33:11;;;;;;;12.77;9.07;;;;;;;;;;5093856;28;20051;-70
2022/04/18 00:35:38;;;;;;;13.13;9.20;;;;;;;;;;5093512;28;20529;-70
2022/04/18 00:38:04;;;;;;;13.18;8.85;;;;;;;;;;5093117;28;20052;-70
2022/04/18 00:40:30;;;;;;;13.40;9.20;;;;;;;;;;5092889;28;20051;-70
2022/04/18 00:43:06;;;;;;;12.95;9.30;;;;;;;;;;5093972;28;20059;-71
2022/04/18 00:45:33;;;;;;;12.23;9.43;;;;;;;;;;5091623;28;20048;-69
2022/04/18 00:47:59;;;;;;;13.30;10.27;;;;;;;;;;5092022;28;20206;-70
2022/04/18 00:50:26;;;;;;;13.77;10.35;;;;;;;;;;5093286;28;20049;-69
2022/04/18 00:52:54;;;;;;;16.00;10.30;;;;;;;;;;5092831;28;20608;-71
2022/04/18 00:55:21;;;;;;;16.80;9.80;;;;;;;;;;5094104;28;20183;-71
2022/04/18 00:57:47;;;;;;;12.85;9.85;;;;;;;;;;5095825;28;20048;-70
2022/04/18 01:00:14;;;;;;;10.52;9.40;;;;;;;;;;5093888;28;20657;-70
2022/04/18 01:02:41;;;;;;;13.85;10.07;;;;;;;;;;5091760;28;20577;-71
2022/04/18 01:05:07;;;;;;;15.07;9.90;;;;;;;;;;5093324;28;20059;-70
2022/04/18 01:07:34;;;;;;;13.43;10.35;;;;;;;;;;5093670;28;20074;-70
2022/04/18 01:10:01;;;;;;;16.70;10.93;;;;;;;;;;5093652;28;20059;-70
2022/04/18 01:12:27;;;;;;;13.65;9.98;;;;;;;;;;5093135;28;20055;-70
2022/04/18 01:14:55;;;;;;;11.70;9.90;;;;;;;;;;5091834;28;20491;-70
2022/04/18 01:17:21;;;;;;;15.55;9.55;;;;;;;;;;5081476;28;20063;-70
2022/04/18 01:19:48;;;;;;;12.95;9.60;;;;;;;;;;5096900;28;20057;-70
2022/04/18 01:22:14;;;;;;;11.50;9.23;;;;;;;;;;5092466;28;20949;-70
2022/04/18 01:30:11;;;;;;;13.25;10.55;;;;;;;;;;5092145;28;20053;-70
2022/04/18 01:32:38;;;;;;;14.13;10.88;;;;;;;;;;5093843;28;20053;-70
2022/04/18 01:35:05;;;;;;;14.88;10.38;;;;;;;;;;5093349;28;20139;-70
2022/04/18 01:37:31;;;;;;;14.00;10.60;;;;;;;;;;5092806;28;20044;-71
2022/04/18 01:39:57;;;;;;;13.75;9.82;;;;;;;;;;5092394;28;20068;-70
2022/04/18 01:42:24;;;;;;;18.77;11.55;;;;;;;;;;5092658;28;20057;-70
2022/04/18 01:44:51;;;;;;;12.55;10.88;;;;;;;;;;5092704;28;20052;-70
2022/04/18 01:47:18;;;;;;;11.93;10.02;;;;;;;;;;5090600;28;20044;-70
2022/04/18 01:49:44;;;;;;;13.57;10.48;;;;;;;;;;5092934;28;20509;-70
2022/04/18 01:52:10;;;;;;;11.38;10.18;;;;;;;;;;5092043;28;20148;-70
2022/04/18 01:54:36;;;;;;;14.50;10.88;;;;;;;;;;5093386;28;20076;-70
2022/04/18 01:57:04;;;;;;;14.25;10.88;;;;;;;;;;5092884;28;20059;-69
2022/04/18 01:59:30;;;;;;;15.30;11.32;;;;;;;;;;5091550;28;20521;-71
2022/04/18 02:01:56;;;;;;;15.98;11.20;;;;;;;;;;5092194;28;20052;-70
2022/04/18 02:04:22;;;;;;;13.35;10.82;;;;;;;;;;5092841;28;20105;-70
2022/04/18 02:06:49;;;;;;;16.35;11.05;;;;;;;;;;5092077;28;20521;-69
2022/04/18 02:09:15;;;;;;;21.85;11.65;;;;;;;;;;5092941;28;20139;-69
2022/04/18 02:11:41;;;;;;;14.27;10.82;;;;;;;;;;5092216;28;20116;-69
2022/04/18 02:14:08;;;;;;;15.00;10.90;;;;;;;;;;5092129;28;20053;-69
2022/04/18 02:16:35;;;;;;;14.23;10.82;;;;;;;;;;5091983;28;20533;-68
2022/04/18 02:19:01;;;;;;;15.45;11.45;;;;;;;;;;5090478;28;20053;-70
2022/04/18 02:21:27;;;;;;;16.70;11.32;;;;;;;;;;5091551;28;20496;-70
2022/04/18 02:23:55;;;;;;;13.07;10.98;;;;;;;;;;5092161;28;20356;-70
2022/04/18 02:26:21;;;;;;;12.05;10.55;;;;;;;;;;5092120;28;20049;-70
2022/04/18 02:28:48;;;;;;;14.05;10.95;;;;;;;;;;5092635;28;20078;-70
2022/04/18 02:31:14;;;;;;;13.13;10.50;;;;;;;;;;5083956;28;20056;-70
2022/04/18 02:33:40;;;;;;;17.25;10.82;;;;;;;;;;5091586;28;20059;-69
2022/04/18 02:36:07;;;;;;;15.20;10.50;;;;;;;;;;5091886;28;20052;-71
2022/04/18 02:38:33;;;;;;;14.98;10.75;;;;;;;;;;5092386;28;20045;-70
2022/04/18 02:40:59;;;;;;;15.10;11.13;;;;;;;;;;5092017;28;20166;-70
2022/04/18 02:43:26;;;;;;;12.73;10.95;;;;;;;;;;5090872;28;20079;-69
2022/04/18 02:45:52;;;;;;;15.77;10.90;;;;;;;;;;5090882;28;20048;-68
2022/04/18 02:48:18;;;;;;;11.32;9.45;;;;;;;;;;5092996;28;20045;-69
2022/04/18 02:50:45;;;;;;;13.77;10.43;;;;;;;;;;5092807;28;20514;-70
2022/04/18 02:53:11;;;;;;;17.15;10.23;;;;;;;;;;5091751;28;20589;-69
2022/04/18 02:55:37;;;;;;;12.73;10.30;;;;;;;;;;5091658;28;20186;-69
2022/04/18 02:58:04;;;;;;;14.65;9.82;;;;;;;;;;5092153;28;20059;-70
2022/04/18 03:00:30;;;;;;;14.88;11.10;;;;;;;;;;5090186;28;20049;-70
2022/04/18 03:02:56;;;;;;;11.98;10.32;;;;;;;;;;5091745;28;20052;-69
2022/04/18 03:05:23;;;;;;;11.98;9.63;;;;;;;;;;5099555;28;20045;-69
2022/04/18 03:07:50;;;;;;;13.38;10.10;;;;;;;;;;5092260;28;20499;-68
2022/04/18 03:10:16;;;;;;;13.77;9.98;;;;;;;;;;5092189;28;20132;-70
2022/04/18 03:12:42;;;;;;;11.80;9.88;;;;;;;;;;5089832;28;20059;-70
2022/04/18 03:15:08;;;;;;;11.20;9.50;;;;;;;;;;5091338;28;20052;-69
2022/04/18 03:17:35;;;;;;;12.75;10.05;;;;;;;;;;5091719;28;20049;-69
2022/04/18 03:20:01;;;;;;;13.25;10.27;;;;;;;;;;5092580;28;20466;-70
2022/04/18 03:22:27;;;;;;;12.82;9.23;;;;;;;;;;5091376;28;20185;-69
2022/04/18 03:24:54;;;;;;;17.08;9.75;;;;;;;;;;5093874;27;20594;-70
2022/04/18 03:27:20;;;;;;;13.18;10.00;;;;;;;;;;5091586;28;20052;-70
2022/04/18 03:29:48;;;;;;;12.88;9.73;;;;;;;;;;5091675;28;20057;-69
2022/04/18 03:32:14;;;;;;;12.00;9.38;;;;;;;;;;5099602;28;20140;-70
2022/04/18 03:34:40;;;;;;;12.30;9.60;;;;;;;;;;5090205;28;20514;-70
2022/04/18 03:39:55;;;;;;;;;;;;;;;;;;5095657;28;20071;-70
2022/04/18 03:42:32;;;;;;;10.98;8.98;;;;;;;;;;5094807;28;44043;-70
2022/04/18 03:45:00;;;;;;;11.70;9.15;;;;;;;;;;5094125;28;20180;-70
2022/04/18 03:47:28;;;;;;;13.00;8.77;;;;;;;;;;5093819;28;20127;-70
2022/04/18 03:49:55;;;;;;;10.15;8.15;;;;;;;;;;5095551;28;20584;-70
2022/04/18 03:52:22;;;;;;;13.18;9.50;;;;;;;;;;5092661;28;20059;-70
2022/04/18 03:54:49;;;;;;;11.80;9.15;;;;;;;;;;5095496;28;20080;-70
2022/04/18 03:57:15;;;;;;;11.55;9.48;;;;;;;;;;5093874;28;20053;-70
2022/04/18 03:59:41;;;;;;;12.80;9.43;;;;;;;;;;5094014;28;20501;-71
2022/04/18 04:02:08;;;;;;;10.90;8.77;;;;;;;;;;5093648;28;20049;-70
2022/04/18 04:04:35;;;;;;;10.70;8.30;;;;;;;;;;5087771;28;20052;-71
2022/04/18 04:07:01;;;;;;;10.18;7.95;;;;;;;;;;5095074;28;20056;-70
2022/04/18 04:09:28;;;;;;;10.85;8.63;;;;;;;;;;5094715;28;20064;-70
2022/04/18 04:11:54;;;;;;;11.57;8.68;;;;;;;;;;5093217;28;20057;-70
2022/04/18 04:14:20;;;;;;;11.20;8.52;;;;;;;;;;5094576;28;20182;-70
2022/04/18 04:16:47;;;;;;;11.73;7.97;;;;;;;;;;5081546;28;20159;-70
2022/04/18 04:19:13;;;;;;;10.82;9.00;;;;;;;;;;5102950;28;20076;-70
2022/04/18 04:21:39;;;;;;;10.18;8.85;;;;;;;;;;5096817;28;20154;-70
2022/04/18 04:24:06;;;;;;;10.48;8.80;;;;;;;;;;5094306;27;20155;-70
2022/04/18 04:26:32;;;;;;;26.83;10.13;;;;;;;;;;5094203;28;20553;-70
2022/04/18 04:28:58;;;;;;;9.30;8.25;;;;;;;;;;5094662;28;20049;-70
2022/04/18 04:31:25;;;;;;;11.02;8.85;;;;;;;;;;5093951;28;20210;-70
2022/04/18 04:33:51;;;;;;;10.77;8.48;;;;;;;;;;5093914;28;20056;-70
2022/04/18 04:36:17;;;;;;;10.80;8.30;;;;;;;;;;5094260;28;20057;-70
2022/04/18 04:38:44;;;;;;;10.18;8.13;;;;;;;;;;5095093;28;20052;-71
2022/04/18 04:41:11;;;;;;;9.77;8.70;;;;;;;;;;5093954;28;20059;-70
2022/04/18 04:43:41;;;;;;;13.73;8.60;;;;;;;;;;5093975;28;20052;-70
2022/04/18 04:46:07;;;;;;;9.52;8.05;;;;;;;;;;5092799;28;20056;-69
2022/04/18 04:48:33;;;;;;;12.00;8.40;;;;;;;;;;5083043;28;20199;-70
2022/04/18 04:51:00;;;;;;;9.73;7.97;;;;;;;;;;5093420;28;20127;-69
2022/04/18 04:53:26;;;;;;;13.13;7.88;;;;;;;;;;5091209;28;20533;-70
2022/04/18 04:55:52;;;;;;;9.27;8.10;;;;;;;;;;5094442;28;20058;-70
2022/04/18 04:58:18;;;;;;;13.88;8.85;;;;;;;;;;5091334;28;20048;-69
2022/04/18 05:00:45;;;;;;;9.18;7.70;;;;;;;;;;5087930;27;20110;-69
2022/04/18 05:03:11;;;;;;;11.27;7.65;;;;;;;;;;5092043;28;20064;-70
2022/04/18 05:05:38;;;;;;;9.15;7.57;;;;;;;;;;5094334;28;20059;-70
2022/04/18 05:08:04;;;;;;;10.35;7.00;;;;;;;;;;5091932;28;20136;-69
2022/04/18 05:10:30;;;;;;;10.82;7.93;;;;;;;;;;5093511;28;20110;-70
2022/04/18 05:12:57;;;;;;;10.13;7.63;;;;;;;;;;5093104;28;20151;-70
2022/04/18 05:15:24;;;;;;;10.55;7.32;;;;;;;;;;5094100;28;20102;-71
2022/04/18 05:17:50;;;;;;;11.95;7.70;;;;;;;;;;5093866;28;20114;-70
2022/04/18 05:20:17;;;;;;;8.63;7.10;;;;;;;;;;5093630;28;20057;-70
2022/04/18 05:22:43;;;;;;;10.82;7.50;;;;;;;;;;5091294;28;20055;-70
2022/04/18 05:25:09;;;;;;;10.95;7.15;;;;;;;;;;5093280;28;20059;-70
2022/04/18 05:27:36;;;;;;;12.60;7.47;;;;;;;;;;5092724;28;20052;-70
2022/04/18 05:30:04;;;;;;;11.50;7.65;;;;;;;;;;5087672;28;20511;-69
2022/04/18 05:32:30;;;;;;;11.55;7.35;;;;;;;;;;5092039;28;20052;-68
2022/04/18 05:34:56;;;;;;;8.48;7.50;;;;;;;;;;5091974;28;20056;-70
2022/04/18 05:37:23;;;;;;;9.68;6.80;;;;;;;;;;5090805;28;20063;-69
2022/04/18 05:39:49;;;;;;;8.60;6.25;;;;;;;;;;5092093;28;20056;-70
2022/04/18 05:42:15;;;;;;;8.98;7.00;;;;;;;;;;5086608;28;20060;-70
2022/04/18 05:44:42;;;;;;;7.57;6.65;;;;;;;;;;5093705;28;20055;-70
2022/04/18 05:47:08;;;;;;;10.55;6.90;;;;;;;;;;5091020;28;20068;-70
2022/04/18 05:49:34;;;;;;;9.98;7.00;;;;;;;;;;5090810;28;20053;-68
2022/04/18 05:52:00;;;;;;;7.68;6.13;;;;;;;;;;5087212;28;20058;-68
2022/04/18 05:54:27;;;;;;;8.52;5.95;;;;;;;;;;5085576;28;20513;-69
2022/04/18 05:56:53;;;;;;;9.88;6.72;;;;;;;;;;5089648;28;20045;-69
2022/04/18 05:59:20;;;;;;;9.45;6.63;;;;;;;;;;5088795;28;20086;-70
2022/04/18 06:01:46;;;;;;;10.82;6.50;;;;;;;;;;5090940;27;20086;-70
2022/04/18 06:04:12;;;;;;;9.75;6.20;;;;;;;;;;5091578;28;20526;-68
2022/04/18 06:06:39;;;;;;;13.18;7.00;;;;;;;;;;5090497;28;20444;-69
2022/04/18 06:09:06;;;;;;;10.43;6.85;;;;;;;;;;5088574;28;20080;-69
2022/04/18 06:11:32;;;;;;;11.23;6.60;;;;;;;;;;5090949;28;20056;-70
2022/04/18 06:13:58;;;;;;;12.15;5.95;;;;;;;;;;5092641;28;20052;-70
2022/04/18 06:16:25;;;;;;;10.52;6.53;;;;;;;;;;5086900;28;20055;-70
2022/04/18 06:18:51;;;;;;;8.82;5.93;;;;;;;;;;5088434;28;20048;-70
2022/04/18 06:21:17;;;;;;;8.73;5.72;;;;;;;;;;5090422;28;20068;-69
2022/04/18 06:23:44;;;;;;;8.18;5.60;;;;;;;;;;5088794;28;20051;-69
2022/04/18 06:26:10;;;;;;;7.53;5.78;;;;;;;;;;5092391;28;20672;-69
2022/04/18 06:28:36;;;;;;;8.10;6.38;;;;;;;;;;5093233;28;20055;-70
2022/04/18 06:31:03;;;;;;;7.85;5.53;;;;;;;;;;5091351;28;20064;-69
2022/04/18 06:33:29;;;;;;;6.00;5.22;;;;;;;;;;5089705;28;20072;-69
2022/04/18 06:35:55;;;;;;;7.00;5.85;;;;;;;;;;5090528;28;20176;-69
2022/04/18 06:38:24;;;;;;;5.80;5.00;;;;;;;;;;5093145;28;20063;-69
2022/04/18 06:40:50;;;;;;;6.40;5.10;;;;;;;;;;5094529;28;20134;-69
2022/04/18 06:43:16;;;;;;;6.93;5.35;;;;;;;;;;5090220;28;20049;-68
2022/04/18 06:45:43;;;;;;;8.10;5.60;;;;;;;;;;5090756;28;20776;-71
2022/04/18 06:48:09;;;;;;;17.58;6.85;;;;;;;;;;5091002;27;20110;-68
2022/04/18 06:50:35;;;;;;;6.47;4.72;;;;;;;;;;5087567;28;20052;-69
2022/04/18 06:53:02;;;;;;;7.38;4.60;;;;;;;;;;5089078;28;20143;-68
2022/04/18 06:56:58;;;;;;;7.20;5.18;;;;;;;;;;5093201;28;20488;-70
2022/04/18 06:58:14;;;;;;;7.88;5.20;;;;;;;;;;5088553;28;20051;-69
2022/04/18 07:00:42;;;;;;;7.82;4.50;;;;;;;;;;5097604;28;20056;-68
2022/04/18 07:03:08;;;;;;;5.40;4.75;;;;;;;;;;5096660;28;20063;-69
2022/04/18 07:05:34;;;;;;;5.80;4.63;;;;;;;;;;5093931;28;20052;-69
2022/04/18 07:08:01;;;;;;;5.97;4.75;;;;;;;;;;5097770;28;20049;-69
2022/04/18 07:10:27;;;;;;;6.53;4.32;;;;;;;;;;5088397;28;20047;-69
2022/04/18 07:12:53;;;;;;;6.93;4.60;;;;;;;;;;5089203;28;20512;-69
2022/04/18 07:15:20;;;;;;;5.30;4.72;;;;;;;;;;5097250;27;20052;-70
2022/04/18 07:17:46;;;;;;;6.47;4.43;;;;;;;;;;5098400;27;20107;-68
2022/04/18 07:20:12;;;;;;;5.40;4.10;;;;;;;;;;5095960;28;20059;-69
2022/04/18 07:22:40;;;;;;;7.25;4.20;;;;;;;;;;5093376;28;20048;-69
2022/04/18 07:25:06;;;;;;;4.95;3.90;;;;;;;;;;5094081;28;20086;-69
2022/04/18 07:27:33;;;;;;;6.80;4.20;;;;;;;;;;5093858;28;20059;-70
2022/04/18 07:29:59;;;;;;;4.65;3.80;;;;;;;;;;5095538;28;20056;-69
2022/04/18 07:32:26;;;;;;;6.18;3.90;;;;;;;;;;5093986;28;20510;-70
2022/04/18 07:34:53;;;;;;;6.05;3.60;;;;;;;;;;5095427;28;20052;-69
2022/04/18 07:37:20;;;;;;;5.32;3.50;;;;;;;;;;5094432;28;20055;-69
2022/04/18 07:39:46;;;;;;;4.80;3.50;;;;;;;;;;5094402;28;20059;-69
2022/04/18 07:42:12;;;;;;;5.13;3.50;;;;;;;;;;5095273;28;20057;-70
2022/04/18 07:44:39;;;;;;;4.78;3.40;;;;;;;;;;5093869;28;20603;-69
2022/04/18 07:47:05;;;;;;;3.45;3.08;;;;;;;;;;5094035;28;20055;-69
2022/04/18 07:49:31;;;;;;;3.22;2.92;;;;;;;;;;5092788;28;20186;-69
2022/04/18 07:51:58;;;;;;;4.32;2.80;;;;;;;;;;5095797;28;20087;-70
2022/04/18 07:54:24;;;;;;;5.13;3.30;;;;;;;;;;5096290;28;20071;-69
2022/04/18 07:56:50;;;;;;;7.35;4.07;;;;;;;;;;5076584;28;20147;-70
2022/04/18 07:59:18;;;;;;;4.38;2.83;;;;;;;;;;5090601;28;20103;-69
2022/04/18 08:01:44;;;;;;;6.03;3.15;;;;;;;;;;5095198;28;20051;-69
2022/04/18 08:04:10;;;;;;;4.30;3.28;;;;;;;;;;5095246;28;20139;-69
2022/04/18 08:06:37;;;;;;;5.10;3.30;;;;;;;;;;5095111;28;20202;-70
2022/04/18 08:09:03;;;;;;;4.47;2.95;;;;;;;;;;5094594;28;20108;-69
2022/04/18 08:11:30;;;;;;;3.35;2.80;;;;;;;;;;5094993;28;20135;-69
2022/04/18 08:13:56;;;;;;;6.32;2.97;;;;;;;;;;5095212;28;20053;-70
2022/04/18 08:16:22;;;;;;;3.55;2.97;;;;;;;;;;5092897;28;20143;-70
2022/04/18 08:18:49;;;;;;;4.50;3.20;;;;;;;;;;5093468;28;20053;-68
2022/04/18 08:21:17;;;;;;;4.82;2.55;;;;;;;;;;5094837;28;20058;-70
2022/04/18 08:23:44;;;;;;;4.10;2.88;;;;;;;;;;5093352;28;20138;-69
2022/04/18 08:26:11;;;;;;;6.22;2.53;;;;;;;;;;5087505;28;20532;-69
2022/04/18 08:28:38;;;;;;;3.85;2.30;;;;;;;;;;5094654;28;20131;-69
2022/04/18 08:31:05;;;;;;;3.92;2.80;;;;;;;;;;5094777;28;20056;-70
2022/04/18 08:33:32;;;;;;;3.35;2.80;;;;;;;;;;5093808;28;20058;-70
2022/04/18 08:35:58;;;;;;;3.40;2.33;;;;;;;;;;5095027;28;20055;-69
2022/04/18 08:38:25;;;;;;;5.90;2.88;;;;;;;;;;5095055;28;20087;-69
2022/04/18 08:40:54;;;;;;;3.88;2.60;;;;;;;;;;5094417;28;20459;-69
2022/04/18 08:43:26;;;;;;;4.25;2.60;;;;;;;;;;5094212;27;20151;-70
2022/04/18 08:45:52;;;;;;;2.78;2.50;;;;;;;;;;5094091;27;20060;-69
2022/04/18 08:53:49;;;;;;;4.63;2.13;;;;;;;;;;5093253;28;20052;-70
2022/04/18 08:56:16;;;;;;;4.30;2.40;;;;;;;;;;5092334;28;20059;-70
2022/04/18 08:58:42;;;;;;;3.47;2.60;;;;;;;;;;5093747;28;20471;-69
2022/04/18 09:01:08;;;;;;;3.72;2.47;;;;;;;;;;5091421;28;20049;-69
2022/04/18 09:03:35;;;;;;;3.30;2.60;;;;;;;;;;5094209;28;20102;-71
2022/04/18 09:06:05;;;;;;;3.15;2.85;;;;;;;;;;5094378;28;20538;-71
2022/04/18 09:08:41;;;;;;;4.63;2.72;;;;;;;;;;5094188;28;20053;-70
2022/04/18 09:11:08;;;;;;;2.22;2.00;;;;;;;;;;5091886;28;20050;-69
2022/04/18 09:13:40;;;;;;;2.70;2.25;;;;;;;;;;5093554;28;20061;-70
2022/04/18 09:16:14;;;;;;;5.03;2.20;;;;;;;;;;5094156;28;20053;-69
2022/04/18 09:18:42;;;;;;;2.67;2.20;;;;;;;;;;5094250;27;20056;-70
2022/04/18 09:21:08;;;;;;;2.47;2.28;;;;;;;;;;5091744;28;20484;-70
2022/04/18 09:23:35;;;;;;;5.55;2.72;;;;;;;;;;5091746;28;20053;-70
2022/04/18 09:26:03;;;;;;;2.88;2.13;;;;;;;;;;5093492;28;20159;-70
2022/04/18 09:28:33;;;;;;;3.47;2.00;;;;;;;;;;5094042;28;20055;-71
2022/04/18 09:31:04;;;;;;;2.90;2.63;;;;;;;;;;5091778;28;20061;-70
2022/04/18 09:33:37;;;;;;;2.92;2.33;;;;;;;;;;5093811;28;20057;-71
2022/04/18 09:36:05;;;;;;;4.13;2.45;;;;;;;;;;5092754;28;20051;-70
2022/04/18 09:38:35;;;;;;;3.67;2.70;;;;;;;;;;5096757;28;20507;-69
2022/04/18 09:41:01;;;;;;;6.70;2.65;;;;;;;;;;5093243;28;20048;-69
2022/04/18 09:43:41;;;;;;;3.75;2.75;;;;;;;;;;5093516;28;20052;-69
2022/04/18 09:46:08;;;;;;;6.00;3.20;;;;;;;;;;5093384;28;20080;-70
2022/04/18 09:48:35;;;;;;;3.85;2.65;;;;;;;;;;5093132;28;20048;-71
2022/04/18 09:51:08;;;;;;;8.02;2.35;;;;;;;;;;5092682;28;21334;-71
2022/04/18 09:53:36;;;;;;;3.72;2.80;;;;;;;;;;5093806;28;20082;-68
2022/04/18 09:56:02;;;;;;;5.22;2.05;;;;;;;;;;5091655;28;20170;-69
2022/04/18 09:58:30;;;;;;;3.25;2.28;;;;;;;;;;5095556;28;20056;-69
2022/04/18 10:01:18;;;;;;;2.30;2.10;;;;;;;;;;5085117;28;20044;-69
2022/04/18 10:03:46;;;;;;;2.47;1.77;;;;;;;;;;5093435;28;20135;-70
2022/04/18 10:06:12;;;;;;;4.63;2.70;;;;;;;;;;5093191;28;20087;-69
2022/04/18 10:08:39;;;;;;;2.35;1.92;;;;;;;;;;5092977;28;20136;-70
2022/04/18 10:11:11;;;;;;;2.08;1.88;;;;;;;;;;5091792;28;20176;-70
2022/04/18 10:13:37;;;;;;;4.45;2.25;;;;;;;;;;5091961;28;20056;-70
2022/04/18 10:16:05;;;;;;;2.42;2.10;;;;;;;;;;5092794;28;20143;-71
2022/04/18 10:18:41;;;;;;;3.83;2.65;;;;;;;;;;5091797;28;20429;-69
2022/04/18 10:21:25;;;;;;;2.95;2.35;;;;;;;;;;5092467;27;20491;-69
2022/04/18 10:23:58;;;;;;;2.90;2.30;;;;;;;;;;5089802;28;20083;-69
2022/04/18 10:26:34;;;;;;;3.17;2.35;;;;;;;;;;5091623;28;20059;-70
2022/04/18 10:29:03;;;;;;;3.22;2.53;;;;;;;;;;5091663;28;20055;-70
2022/04/18 10:31:31;;;;;;;4.35;2.70;;;;;;;;;;5090079;28;20148;-70
2022/04/18 10:33:58;;;;;;;3.17;2.08;;;;;;;;;;5093271;28;20057;-70
2022/04/18 10:36:26;;;;;;;2.70;2.20;;;;;;;;;;5099059;28;20533;-70
2022/04/18 10:38:53;;;;;;;5.05;2.83;;;;;;;;;;5090385;27;20060;-69
2022/04/18 10:41:35;;;;;;;3.20;2.03;;;;;;;;;;5080775;28;21170;-69
2022/04/18 10:44:07;;;;;;;2.78;2.10;;;;;;;;;;5090742;28;20073;-69
2022/04/18 10:46:40;;;;;;;2.55;1.90;;;;;;;;;;5092808;28;20052;-70
2022/04/18 10:49:19;;;;;;;3.08;1.85;;;;;;;;;;5093823;28;20061;-70
2022/04/18 10:51:53;;;;;;;3.35;2.20;;;;;;;;;;5091115;28;20088;-72
2022/04/18 10:54:21;;;;;;;2.22;1.85;;;;;;;;;;5100964;28;20059;-70
2022/04/18 10:56:48;;;;;;;1.75;1.60;;;;;;;;;;5112722;27;20055;-69
2022/04/18 10:59:14;;;;;;;3.30;1.60;;;;;;;;;;5104331;28;20052;-70
2022/04/18 11:01:42;;;;;;;2.40;2.05;;;;;;;;;;5093782;28;20135;-71
2022/04/18 11:04:09;;;;;;;3.60;2.03;;;;;;;;;;5096125;28;20096;-70
2022/04/18 11:06:40;;;;;;;4.25;1.80;;;;;;;;;;5094440;28;20191;-70
2022/04/18 11:09:08;;;;;;;2.75;1.70;;;;;;;;;;5094998;28;20048;-69
2022/04/18 11:11:35;;;;;;;4.20;2.30;;;;;;;;;;5095051;27;20123;-71
2022/04/18 11:14:12;;;;;;;3.55;1.70;;;;;;;;;;5094863;28;20048;-70
2022/04/18 11:16:41;;;;;;;2.47;2.20;;;;;;;;;;5094321;28;20060;-70
2022/04/18 11:19:08;;;;;;;3.00;2.00;;;;;;;;;;5095265;28;20583;-70
2022/04/18 11:21:57;;;;;;;2.55;1.88;;;;;;;;;;5100820;28;20129;-69
2022/04/18 11:24:42;;;;;;;2.22;2.03;;;;;;;;;;5089452;28;20139;-71
2022/04/18 11:27:22;;;;;;;3.33;1.90;;;;;;;;;;5095298;28;20529;-72
2022/04/18 11:29:55;;;;;;;2.30;2.10;;;;;;;;;;5094501;28;20052;-72
2022/04/18 11:32:28;;;;;;;3.40;2.17;;;;;;;;;;5095204;28;20051;-71
2022/04/18 11:34:55;;;;;;;3.17;1.90;;;;;;;;;;5095525;28;20048;-71
2022/04/18 11:37:26;;;;;;;1.98;1.88;;;;;;;;;;5094800;28;20048;-71
2022/04/18 11:39:53;;;;;;;3.10;2.33;;;;;;;;;;5089354;28;20059;-70
2022/04/18 11:42:20;;;;;;;3.70;2.17;;;;;;;;;;5095186;28;20056;-71
2022/04/18 11:44:48;;;;;;;3.50;2.47;;;;;;;;;;5091893;28;20053;-68
2022/04/18 11:47:15;;;;;;;3.47;2.38;;;;;;;;;;5110016;27;20143;-69
2022/04/18 11:49:44;;;;;;;2.53;2.33;;;;;;;;;;5094926;28;20132;-69
2022/04/18 11:52:24;;;;;;;2.35;2.15;;;;;;;;;;5095429;28;20045;-69
2022/04/18 11:54:54;;;;;;;2.50;2.30;;;;;;;;;;5095388;28;20056;-68
2022/04/18 11:57:20;;;;;;;3.40;2.63;;;;;;;;;;5095120;28;20048;-68
2022/04/18 11:59:47;;;;;;;3.53;2.50;;;;;;;;;;5094237;28;20079;-68
2022/04/18 12:07:44;;;;;;;2.85;2.42;;;;;;;;;;5095340;28;20048;-68
2022/04/18 12:10:19;;;;;;;3.25;2.70;;;;;;;;;;5093702;28;20052;-68
2022/04/18 12:12:47;;;;;;;3.03;2.72;;;;;;;;;;5094032;28;20052;-69
2022/04/18 12:15:14;;;;;;;4.40;2.63;;;;;;;;;;5093667;28;20056;-68
2022/04/18 12:17:40;;;;;;;4.13;2.40;;;;;;;;;;5098527;28;20056;-68
2022/04/18 12:20:21;;;;;;;4.47;2.95;;;;;;;;;;5095018;28;20055;-69
2022/04/18 12:22:48;;;;;;;3.00;2.60;;;;;;;;;;5094251;28;20049;-69
2022/04/18 12:25:18;;;;;;;3.45;2.00;;;;;;;;;;5094005;28;20550;-69
2022/04/18 12:27:48;;;;;;;3.83;2.60;;;;;;;;;;5093509;28;20044;-70
2022/04/18 12:30:14;;;;;;;2.70;2.13;;;;;;;;;;5096061;28;20052;-70
2022/04/18 12:32:41;;;;;;;2.25;2.05;;;;;;;;;;5107247;28;20138;-70
2022/04/18 12:35:08;;;;;;;4.78;2.78;;;;;;;;;;5097241;27;20055;-70
2022/04/18 12:37:34;;;;;;;4.93;2.72;;;;;;;;;;5088168;28;20909;-70
2022/04/18 12:40:13;;;;;;;3.30;2.40;;;;;;;;;;5091144;28;20165;-70
2022/04/18 12:42:40;;;;;;;3.53;2.67;;;;;;;;;;5089359;28;20059;-70
2022/04/18 12:45:06;;;;;;;5.40;2.47;;;;;;;;;;5094158;28;20053;-70
2022/04/18 12:47:32;;;;;;;2.85;2.58;;;;;;;;;;5094280;28;20059;-71
2022/04/18 12:50:05;;;;;;;3.17;2.85;;;;;;;;;;5097484;28;20052;-69
2022/04/18 12:52:31;;;;;;;4.40;2.97;;;;;;;;;;5090914;28;20049;-68
2022/04/18 12:55:06;;;;;;;5.13;2.55;;;;;;;;;;5093049;28;20052;-68
2022/04/18 12:57:32;;;;;;;3.88;3.42;;;;;;;;;;5094282;28;20059;-69
2022/04/18 13:00:14;;;;;;;3.35;3.05;;;;;;;;;;5093925;28;20416;-71
2022/04/18 13:03:02;;;;;;;3.65;3.08;;;;;;;;;;5094047;28;20518;-70
2022/04/18 13:05:29;;;;;;;3.47;3.17;;;;;;;;;;5093163;28;20040;-70
2022/04/18 13:07:56;;;;;;;4.55;3.00;;;;;;;;;;5094689;28;20048;-71
2022/04/18 13:10:26;;;;;;;3.22;2.92;;;;;;;;;;5093149;28;20057;-72
2022/04/18 13:13:01;;;;;;;3.28;2.97;;;;;;;;;;5093549;28;20052;-71
2022/04/18 13:15:27;;;;;;;3.42;2.97;;;;;;;;;;5093939;28;20056;-71
2022/04/18 13:17:57;;;;;;;3.60;3.00;;;;;;;;;;5092698;28;20059;-70
2022/04/18 13:20:24;;;;;;;3.30;3.00;;;;;;;;;;5096206;28;20045;-69
2022/04/18 13:22:50;;;;;;;3.38;2.85;;;;;;;;;;5088905;28;20052;-69
2022/04/18 13:25:17;;;;;;;3.22;2.92;;;;;;;;;;5094074;28;20056;-69
2022/04/18 13:27:51;;;;;;;4.13;3.10;;;;;;;;;;5094057;28;20052;-70
2022/04/18 13:30:17;;;;;;;3.20;2.90;;;;;;;;;;5098570;28;20060;-68
2022/04/18 13:32:44;;;;;;;6.97;3.30;;;;;;;;;;5092947;27;20048;-68
2022/04/18 13:35:10;;;;;;;6.90;3.33;;;;;;;;;;5093690;28;20055;-69
2022/04/18 13:37:36;;;;;;;5.43;3.35;;;;;;;;;;5093615;28;20063;-68
2022/04/18 13:40:03;;;;;;;4.40;3.00;;;;;;;;;;5092340;28;20055;-69
2022/04/18 13:42:30;;;;;;;3.60;3.08;;;;;;;;;;5092218;28;20503;-70
2022/04/18 13:44:56;;;;;;;10.00;3.72;;;;;;;;;;5090354;28;20052;-70
2022/04/18 13:47:22;;;;;;;3.75;3.38;;;;;;;;;;5093115;28;20064;-71
2022/04/18 13:49:49;;;;;;;5.72;3.75;;;;;;;;;;5092272;28;20068;-70
2022/04/18 13:52:15;;;;;;;5.47;3.85;;;;;;;;;;5090876;28;20054;-70
2022/04/18 13:54:41;;;;;;;4.78;2.78;;;;;;;;;;5091915;28;20060;-68
2022/04/18 13:57:08;;;;;;;3.10;2.80;;;;;;;;;;5093431;28;20049;-69
2022/04/18 13:59:34;;;;;;;5.13;3.15;;;;;;;;;;5093320;27;20147;-69
2022/04/18 14:02:06;;;;;;;2.92;2.63;;;;;;;;;;5091162;28;20491;-70
2022/04/18 14:04:33;;;;;;;4.75;3.08;;;;;;;;;;5091636;28;20499;-69
2022/04/18 14:06:59;;;;;;;3.47;3.17;;;;;;;;;;5093138;28;20136;-70
2022/04/18 14:09:26;;;;;;;3.60;3.30;;;;;;;;;;5091442;28;20052;-70
2022/04/18 14:11:52;;;;;;;3.88;3.22;;;;;;;;;;5104029;27;20056;-70
2022/04/18 14:22:36;;;;;;;4.30;3.40;;;;;;;;;;5092226;28;20527;-70
2022/04/18 14:25:03;;;;;;;3.75;3.42;;;;;;;;;;5090961;28;20053;-70
2022/04/18 14:27:29;;;;;;;3.60;3.30;;;;;;;;;;5090536;28;20056;-71
2022/04/18 14:29:56;;;;;;;3.28;2.97;;;;;;;;;;5090598;28;20474;-71
2022/04/18 14:32:22;;;;;;;4.53;3.42;;;;;;;;;;5090848;28;20087;-70
2022/04/18 14:34:49;;;;;;;3.33;3.03;;;;;;;;;;5090582;28;20053;-71
2022/04/18 14:37:15;;;;;;;3.50;3.20;;;;;;;;;;5092388;28;20048;-70
2022/04/18 14:39:41;;;;;;;3.78;3.42;;;;;;;;;;5092108;28;20579;-71
2022/04/18 14:42:08;;;;;;;3.40;3.05;;;;;;;;;;5092640;28;20106;-70
2022/04/18 14:44:34;;;;;;;4.63;3.15;;;;;;;;;;5090529;28;20052;-70
2022/04/18 14:47:00;;;;;;;5.05;3.15;;;;;;;;;;5091056;28;20056;-71
2022/04/18 14:49:26;;;;;;;4.25;3.13;;;;;;;;;;5093444;28;20055;-71
2022/04/18 14:51:53;;;;;;;6.40;3.20;;;;;;;;;;5088822;28;20056;-68
2022/04/18 14:54:19;;;;;;;4.13;3.00;;;;;;;;;;5091203;28;20052;-70
2022/04/18 14:56:45;;;;;;;3.40;3.10;;;;;;;;;;5092347;28;20044;-71
2022/04/18 14:59:12;;;;;;;4.15;2.97;;;;;;;;;;5092023;28;20147;-71
2022/04/18 15:01:39;;;;;;;3.80;2.92;;;;;;;;;;5091901;28;20581;-70
2022/04/18 15:04:05;;;;;;;4.40;2.80;;;;;;;;;;5092009;28;20048;-70
2022/04/18 15:06:31;;;;;;;4.22;3.30;;;;;;;;;;5092569;28;20067;-71